createdAt,value
2019-05-23T00:02:30.067Z,13.10
2019-05-23T00:05:34.902Z,13.20
2019-05-23T00:08:09.376Z,13.10
2019-05-23T00:10:42.895Z,13.20
2019-05-23T00:13:30.955Z,13.10
2019-05-23T00:16:01.470Z,13.20
2019-05-23T00:18:31.702Z,13.00
2019-05-23T00:21:03.218Z,13.10
2019-05-23T00:23:34.942Z,13.10
2019-05-23T00:26:06.791Z,12.90
2019-05-23T00:28:37.103Z,12.90
2019-05-23T00:31:19.176Z,12.80
2019-05-23T00:33:50.533Z,12.60
2019-05-23T00:36:23.132Z,12.80
2019-05-23T00:38:54.253Z,12.50
2019-05-23T00:41:25.146Z,12.30
2019-05-23T00:43:56.035Z,12.30
2019-05-23T00:46:27.701Z,12.20
2019-05-23T00:48:58.078Z,12.20
2019-05-23T00:51:29.565Z,12.30
2019-05-23T00:53:59.854Z,12.60
2019-05-23T00:56:30.247Z,12.70
2019-05-23T00:59:01.232Z,12.60
2019-05-23T01:01:31.804Z,12.70
2019-05-23T01:04:03.922Z,12.50
2019-05-23T01:06:34.791Z,12.60
2019-05-23T01:09:06.913Z,12.50
2019-05-23T01:11:37.877Z,12.50
2019-05-23T01:14:09.164Z,12.60
2019-05-23T01:16:39.873Z,12.40
2019-05-23T01:19:10.985Z,12.30
2019-05-23T01:21:58.996Z,12.40
2019-05-23T01:24:33.802Z,12.30
2019-05-23T01:27:05.839Z,12.20
2019-05-23T01:29:50.183Z,12.20
2019-05-23T01:32:39.030Z,12.30
2019-05-23T01:35:09.954Z,12.30
2019-05-23T01:37:41.140Z,12.30
2019-05-23T01:40:12.915Z,12.20
2019-05-23T01:42:43.562Z,12.30
2019-05-23T01:45:16.398Z,12.20
2019-05-23T01:47:49.192Z,12.20
2019-05-23T01:50:23.338Z,12.20
2019-05-23T01:52:54.045Z,12.30
2019-05-23T01:55:24.873Z,12.10
2019-05-23T01:57:55.526Z,11.90
2019-05-23T02:00:31.278Z,12.10
2019-05-23T02:03:01.748Z,11.80
2019-05-23T02:05:33.063Z,11.90
2019-05-23T02:08:03.963Z,12.10
2019-05-23T02:10:34.579Z,12.20
2019-05-23T02:13:06.066Z,12.30
2019-05-23T02:15:37.159Z,12.40
2019-05-23T02:18:08.865Z,12.30
2019-05-23T02:20:39.161Z,12.10
2019-05-23T02:23:12.016Z,12.10
2019-05-23T02:25:42.638Z,12.20
2019-05-23T02:28:13.886Z,12.30
2019-05-23T02:30:44.806Z,12.30
2019-05-23T02:33:15.108Z,12.10
2019-05-23T02:35:45.662Z,12.10
2019-05-23T02:38:33.374Z,12.10
2019-05-23T02:41:11.989Z,12.20
2019-05-23T02:43:44.604Z,12.10
2019-05-23T02:46:27.465Z,12.00
2019-05-23T02:49:03.689Z,12.10
2019-05-23T02:51:36.974Z,11.90
2019-05-23T02:54:12.006Z,11.80
2019-05-23T02:56:43.180Z,11.60
2019-05-23T02:59:30.781Z,11.50
2019-05-23T03:02:45.431Z,11.50
2019-05-23T03:05:18.076Z,11.60
2019-05-23T03:07:48.375Z,11.60
2019-05-23T03:10:20.448Z,11.70
2019-05-23T03:12:52.677Z,11.80
2019-05-23T03:15:24.653Z,11.40
2019-05-23T03:17:56.757Z,11.30
2019-05-23T03:20:28.236Z,11.40
2019-05-23T03:23:09.690Z,11.30
2019-05-23T03:26:18.571Z,11.40
2019-05-23T03:28:49.790Z,11.50
2019-05-23T03:31:32.583Z,11.50
2019-05-23T03:34:03.821Z,11.30
2019-05-23T03:36:34.276Z,11.60
2019-05-23T03:39:07.335Z,11.70
2019-05-23T03:41:39.359Z,11.40
2019-05-23T03:44:10.150Z,11.50
2019-05-23T03:46:44.670Z,11.60
2019-05-23T03:49:16.242Z,11.50
2019-05-23T03:51:46.830Z,11.40
2019-05-23T03:54:18.173Z,11.50
2019-05-23T03:56:49.685Z,11.60
2019-05-23T03:59:22.160Z,11.70
2019-05-23T04:01:54.154Z,11.60
2019-05-23T04:04:25.988Z,11.70
2019-05-23T04:06:57.160Z,11.70
2019-05-23T04:09:27.898Z,11.70
2019-05-23T04:11:58.293Z,11.50
2019-05-23T04:14:28.613Z,11.50
2019-05-23T04:16:59.243Z,11.60
2019-05-23T04:19:29.815Z,11.60
2019-05-23T04:22:00.097Z,11.80
2019-05-23T04:24:30.711Z,11.80
2019-05-23T04:27:01.289Z,11.70
2019-05-23T04:29:31.886Z,11.80
2019-05-23T04:32:07.617Z,11.70
2019-05-23T04:34:34.393Z,11.80
2019-05-23T04:37:04.662Z,11.80
2019-05-23T04:39:34.889Z,11.80
2019-05-23T04:42:05.314Z,11.80
2019-05-23T04:44:35.665Z,11.80
2019-05-23T04:47:06.564Z,11.90
2019-05-23T04:49:38.566Z,11.90
2019-05-23T04:52:09.169Z,11.90
2019-05-23T04:54:39.605Z,11.80
2019-05-23T04:57:09.955Z,11.90
2019-05-23T04:59:40.936Z,11.80
2019-05-23T05:02:25.472Z,11.90
2019-05-23T05:04:44.257Z,12.00
2019-05-23T05:07:14.595Z,12.10
2019-05-23T05:09:45.375Z,12.20
2019-05-23T05:12:15.797Z,12.10
2019-05-23T05:14:46.339Z,12.20
2019-05-23T05:17:17.400Z,12.30
2019-05-23T05:19:47.738Z,12.30
2019-05-23T05:22:18.448Z,12.40
2019-05-23T05:24:48.864Z,12.00
2019-05-23T05:27:19.510Z,11.90
2019-05-23T05:29:49.787Z,12.00
2019-05-23T05:32:20.507Z,12.30
2019-05-23T05:34:50.796Z,12.50
2019-05-23T05:37:21.107Z,12.60
2019-05-23T05:39:51.866Z,12.60
2019-05-23T05:42:22.716Z,12.60
2019-05-23T05:44:53.380Z,12.60
2019-05-23T05:47:23.769Z,12.60
2019-05-23T05:49:54.050Z,12.50
2019-05-23T05:52:24.620Z,12.50
2019-05-23T05:54:54.935Z,12.50
2019-05-23T05:57:25.375Z,12.60
2019-05-23T05:59:55.766Z,12.70
2019-05-23T06:02:26.084Z,12.80
2019-05-23T06:04:56.479Z,12.80
2019-05-23T06:07:35.258Z,12.60
2019-05-23T06:10:09.836Z,12.70
2019-05-23T06:12:40.421Z,12.90
2019-05-23T06:15:11.219Z,13.20
2019-05-23T06:17:41.751Z,13.80
2019-05-23T06:20:12.363Z,14.20
2019-05-23T06:22:44.106Z,14.80
2019-05-23T06:25:14.908Z,15.10
2019-05-23T06:27:45.433Z,15.60
2019-05-23T06:30:18.443Z,16.00
2019-05-23T06:32:48.787Z,16.20
2019-05-23T06:35:19.821Z,16.40
2019-05-23T06:37:50.415Z,16.70
2019-05-23T06:40:20.939Z,17.10
2019-05-23T06:42:51.321Z,17.00
2019-05-23T06:45:22.720Z,17.20
2019-05-23T06:47:56.497Z,17.30
2019-05-23T06:50:26.775Z,17.40
2019-05-23T06:52:57.688Z,17.50
2019-05-23T06:55:28.101Z,17.70
2019-05-23T06:57:58.693Z,17.80
2019-05-23T07:00:29.933Z,17.70
2019-05-23T07:03:00.235Z,17.80
2019-05-23T07:05:34.696Z,17.90
2019-05-23T07:08:06.073Z,18.20
2019-05-23T07:10:36.644Z,18.10
2019-05-23T07:13:06.977Z,17.90
2019-05-23T07:15:37.567Z,18.10
2019-05-23T07:18:08.114Z,18.00
2019-05-23T07:20:38.443Z,18.40
2019-05-23T07:23:12.253Z,18.60
2019-05-23T07:25:42.554Z,18.70
2019-05-23T07:28:12.766Z,18.90
2019-05-23T07:30:43.067Z,18.90
2019-05-23T07:33:14.190Z,19.00
2019-05-23T07:35:44.450Z,19.20
2019-05-23T07:38:14.981Z,19.70
2019-05-23T07:40:45.609Z,20.00
2019-05-23T07:43:16.330Z,19.90
2019-05-23T07:45:54.010Z,20.10
2019-05-23T07:48:24.901Z,20.40
2019-05-23T07:50:55.315Z,20.30
2019-05-23T07:53:35.083Z,19.90
2019-05-23T07:56:06.318Z,19.90
2019-05-23T07:58:36.807Z,19.80
2019-05-23T08:01:08.603Z,20.30
2019-05-23T08:03:44.805Z,20.70
2019-05-23T08:06:19.834Z,21.10
2019-05-23T08:08:50.621Z,21.30
2019-05-23T08:11:21.201Z,21.30
2019-05-23T08:13:51.891Z,21.30
2019-05-23T08:16:22.604Z,21.00
2019-05-23T08:18:53.022Z,20.60
2019-05-23T08:21:23.180Z,20.80
2019-05-23T08:23:53.475Z,20.80
2019-05-23T08:26:25.289Z,21.40
2019-05-23T08:29:22.283Z,21.80
2019-05-23T08:31:28.864Z,21.90
2019-05-23T08:34:00.345Z,22.10
2019-05-23T08:36:30.921Z,22.10
2019-05-23T08:39:01.451Z,21.70
2019-05-23T08:41:32.388Z,21.60
2019-05-23T08:44:03.214Z,21.50
2019-05-23T08:46:33.597Z,21.70
2019-05-23T08:49:04.709Z,21.50
2019-05-23T08:51:35.003Z,21.30
2019-05-23T08:54:05.592Z,21.10
2019-05-23T08:56:35.968Z,20.60
2019-05-23T08:59:07.441Z,20.80
2019-05-23T09:01:37.734Z,20.80
2019-05-23T09:04:08.217Z,20.70
2019-05-23T09:06:39.070Z,20.50
2019-05-23T09:09:28.252Z,20.40
2019-05-23T09:11:42.621Z,20.10
2019-05-23T09:14:13.020Z,19.90
2019-05-23T09:16:43.239Z,20.20
2019-05-23T09:19:13.449Z,20.20
2019-05-23T09:21:43.818Z,20.20
2019-05-23T09:24:14.269Z,20.00
2019-05-23T09:26:45.005Z,20.00
2019-05-23T09:29:15.524Z,19.70
2019-05-23T09:31:46.420Z,19.30
2019-05-23T09:34:16.626Z,19.10
2019-05-23T09:36:46.926Z,19.10
2019-05-23T09:39:18.537Z,19.10
2019-05-23T09:41:48.925Z,19.00
2019-05-23T09:44:19.414Z,19.00
2019-05-23T09:46:49.617Z,18.90
2019-05-23T09:49:20.010Z,18.90
2019-05-23T09:51:53.496Z,18.80
2019-05-23T09:54:23.109Z,18.80
2019-05-23T09:56:53.519Z,18.80
2019-05-23T09:59:24.346Z,18.70
2019-05-23T10:01:55.418Z,18.80
2019-05-23T10:04:25.793Z,19.10
2019-05-23T10:06:56.024Z,19.00
2019-05-23T10:09:26.454Z,19.10
2019-05-23T10:11:56.930Z,19.30
2019-05-23T10:14:30.718Z,19.40
2019-05-23T10:17:01.026Z,19.50
2019-05-23T10:19:31.420Z,19.40
2019-05-23T10:22:01.666Z,19.60
2019-05-23T10:24:31.966Z,19.50
2019-05-23T10:27:02.138Z,19.30
2019-05-23T10:29:32.505Z,19.40
2019-05-23T10:32:02.787Z,19.50
2019-05-23T10:34:33.296Z,19.40
2019-05-23T10:37:05.669Z,19.40
2019-05-23T10:39:35.923Z,19.30
2019-05-23T10:42:06.564Z,19.30
2019-05-23T10:44:36.825Z,19.40
2019-05-23T10:47:07.081Z,19.60
2019-05-23T10:49:37.364Z,19.70
2019-05-23T10:52:07.687Z,19.70
2019-05-23T10:54:37.919Z,19.60
2019-05-23T10:57:08.201Z,19.50
2019-05-23T10:59:38.526Z,19.40
2019-05-23T11:02:10.527Z,19.60
2019-05-23T11:04:40.811Z,19.60
2019-05-23T11:07:11.440Z,19.60
2019-05-23T11:09:42.157Z,19.60
2019-05-23T11:12:12.461Z,19.80
2019-05-23T11:14:42.779Z,19.90
2019-05-23T11:17:13.143Z,20.00
2019-05-23T11:19:43.355Z,20.00
2019-05-23T11:22:13.592Z,20.10
2019-05-23T11:24:44.140Z,20.10
2019-05-23T11:27:14.638Z,20.20
2019-05-23T11:29:45.026Z,20.30
2019-05-23T11:32:19.762Z,20.30
2019-05-23T11:34:47.556Z,20.40
2019-05-23T11:37:17.972Z,20.40
2019-05-23T11:39:50.910Z,20.30
2019-05-23T11:42:20.492Z,20.20
2019-05-23T11:44:50.948Z,20.40
2019-05-23T11:47:21.287Z,20.50
2019-05-23T11:49:51.690Z,20.50
2019-05-23T11:52:22.290Z,20.60
2019-05-23T11:54:53.150Z,20.70
2019-05-23T11:57:23.551Z,20.70
2019-05-23T11:59:54.085Z,20.70
2019-05-23T12:02:30.926Z,20.70
2019-05-23T12:05:02.790Z,20.80
2019-05-23T12:07:34.145Z,20.90
2019-05-23T12:10:05.441Z,20.90
2019-05-23T12:12:35.885Z,20.90
2019-05-23T12:15:10.357Z,20.90
2019-05-23T12:17:40.945Z,20.90
2019-05-23T12:20:12.296Z,20.90
2019-05-23T12:22:42.839Z,21.00
2019-05-23T12:25:22.441Z,21.00
2019-05-23T12:27:47.378Z,21.10
2019-05-23T12:30:20.022Z,21.10
2019-05-23T12:32:50.318Z,21.00
2019-05-23T12:35:20.798Z,20.80
2019-05-23T12:37:51.073Z,20.90
2019-05-23T12:40:21.310Z,20.90
2019-05-23T12:42:51.515Z,20.80
2019-05-23T12:45:22.033Z,20.90
2019-05-23T12:47:57.661Z,20.90
2019-05-23T12:50:31.974Z,20.80
2019-05-23T12:53:02.283Z,20.80
2019-05-23T12:55:32.646Z,20.80
2019-05-23T12:58:02.899Z,20.60
2019-05-23T13:00:39.219Z,20.60
2019-05-23T13:03:09.490Z,20.80
2019-05-23T13:05:40.263Z,20.80
2019-05-23T13:08:10.535Z,20.80
2019-05-23T13:10:40.796Z,21.00
2019-05-23T13:13:11.111Z,21.00
2019-05-23T13:15:41.401Z,21.00
2019-05-23T13:18:11.720Z,21.10
2019-05-23T13:20:41.917Z,21.20
2019-05-23T13:23:20.236Z,21.20
2019-05-23T13:25:44.649Z,21.30
2019-05-23T13:28:14.938Z,21.40
2019-05-23T13:30:45.203Z,21.30
2019-05-23T13:33:16.122Z,21.40
2019-05-23T13:35:46.993Z,21.50
2019-05-23T13:38:17.374Z,21.60
2019-05-23T13:40:47.667Z,21.60
2019-05-23T13:43:17.913Z,21.50
2019-05-23T13:45:48.370Z,21.50
2019-05-23T13:48:18.813Z,21.70
2019-05-23T13:50:49.217Z,21.70
2019-05-23T13:53:20.263Z,21.60
2019-05-23T13:55:50.778Z,21.50
2019-05-23T13:58:21.352Z,21.40
2019-05-23T14:00:51.663Z,21.30
2019-05-23T14:03:22.236Z,21.30
2019-05-23T14:05:52.463Z,21.30
2019-05-23T14:08:23.332Z,21.30
2019-05-23T14:10:53.682Z,21.40
2019-05-23T14:13:24.643Z,21.50
2019-05-23T14:15:55.401Z,21.50
2019-05-23T14:18:26.326Z,21.40
2019-05-23T14:20:56.620Z,21.60
2019-05-23T14:23:30.744Z,21.50
2019-05-23T14:26:01.346Z,21.30
2019-05-23T14:28:32.088Z,21.50
2019-05-23T14:31:07.423Z,21.50
2019-05-23T14:33:47.085Z,21.50
2019-05-23T14:36:34.810Z,21.60
2019-05-23T14:39:10.545Z,21.50
2019-05-23T14:41:46.600Z,21.40
2019-05-23T14:44:16.835Z,21.40
2019-05-23T14:47:04.667Z,21.40
2019-05-23T14:49:39.466Z,21.40
2019-05-23T14:52:20.425Z,21.40
2019-05-23T14:54:55.632Z,21.30
2019-05-23T14:57:25.938Z,21.30
2019-05-23T14:59:56.465Z,21.30
2019-05-23T15:02:27.228Z,21.30
2019-05-23T15:04:57.512Z,21.20
2019-05-23T15:07:27.767Z,21.30
2019-05-23T15:09:58.081Z,21.10
2019-05-23T15:12:28.356Z,21.20
2019-05-23T15:14:58.661Z,21.30
2019-05-23T15:17:28.943Z,21.40
2019-05-23T15:19:59.327Z,21.40
2019-05-23T15:22:29.745Z,21.30
2019-05-23T15:25:00.022Z,21.40
2019-05-23T15:27:33.078Z,21.40
2019-05-23T15:30:02.289Z,21.40
2019-05-23T15:32:32.514Z,21.30
2019-05-23T15:35:02.854Z,21.30
2019-05-23T15:37:33.634Z,21.30
2019-05-23T15:40:04.326Z,21.30
2019-05-23T15:42:34.717Z,21.30
2019-05-23T15:45:05.483Z,21.30
2019-05-23T15:47:36.248Z,21.20
2019-05-23T15:50:11.414Z,21.30
2019-05-23T15:52:55.513Z,21.30
2019-05-23T15:55:44.801Z,21.20
2019-05-23T15:58:29.987Z,21.10
2019-05-23T16:01:05.082Z,21.00
2019-05-23T16:03:47.104Z,21.00
2019-05-23T16:06:19.270Z,21.00
2019-05-23T16:08:49.470Z,21.00
2019-05-23T16:11:20.187Z,21.00
2019-05-23T16:13:50.452Z,21.00
2019-05-23T16:16:20.969Z,21.00
2019-05-23T16:18:51.535Z,21.10
2019-05-23T16:21:23.093Z,21.00
2019-05-23T16:23:53.607Z,21.00
2019-05-23T16:26:23.912Z,20.90
2019-05-23T16:28:54.226Z,20.90
2019-05-23T16:31:24.588Z,21.00
2019-05-23T16:36:31.315Z,20.90
2019-05-23T16:39:02.626Z,20.90
2019-05-23T16:41:33.061Z,20.90
2019-05-23T16:44:03.485Z,20.90
2019-05-23T16:46:33.798Z,20.80
2019-05-23T16:49:04.339Z,20.90
2019-05-23T16:51:34.804Z,20.90
2019-05-23T16:54:05.758Z,20.90
2019-05-23T16:56:55.522Z,20.80
2019-05-23T16:59:34.913Z,20.80
2019-05-23T17:02:33.241Z,20.80
2019-05-23T17:05:27.153Z,20.80
2019-05-23T17:08:14.707Z,20.80
2019-05-23T17:10:56.407Z,20.80
2019-05-23T17:13:36.959Z,20.80
2019-05-23T17:16:16.798Z,20.80
2019-05-23T17:18:58.388Z,20.70
2019-05-23T17:21:46.568Z,20.70
2019-05-23T17:24:41.852Z,20.70
2019-05-23T17:27:22.335Z,20.60
2019-05-23T17:29:59.783Z,20.70
2019-05-23T17:32:33.209Z,20.60
2019-05-23T17:35:03.889Z,20.60
2019-05-23T17:37:34.333Z,20.60
2019-05-23T17:40:05.407Z,20.70
2019-05-23T17:42:35.844Z,20.70
2019-05-23T17:45:06.638Z,20.80
2019-05-23T17:47:36.916Z,20.80
2019-05-23T17:50:07.657Z,20.80
2019-05-23T17:52:40.113Z,20.80
2019-05-23T17:55:10.656Z,20.80
2019-05-23T17:57:41.145Z,20.70
2019-05-23T18:00:12.788Z,20.70
2019-05-23T18:02:43.112Z,20.70
2019-05-23T18:05:13.556Z,20.60
2019-05-23T18:07:44.294Z,20.60
2019-05-23T18:10:14.896Z,20.60
2019-05-23T18:12:45.223Z,20.60
2019-05-23T18:15:15.539Z,20.50
2019-05-23T18:17:46.965Z,20.50
2019-05-23T18:20:17.476Z,20.40
2019-05-23T18:22:48.021Z,20.40
2019-05-23T18:25:19.326Z,20.40
2019-05-23T18:27:49.837Z,20.30
2019-05-23T18:30:46.333Z,20.20
2019-05-23T18:33:18.024Z,20.30
2019-05-23T18:35:49.066Z,20.20
2019-05-23T18:38:19.685Z,20.20
2019-05-23T18:41:02.244Z,20.20
2019-05-23T18:43:23.373Z,20.10
2019-05-23T18:45:57.004Z,20.10
2019-05-23T18:48:29.025Z,20.00
2019-05-23T18:50:59.444Z,20.00
2019-05-23T18:53:29.766Z,19.90
2019-05-23T18:56:00.085Z,19.90
2019-05-23T18:58:30.433Z,19.90
2019-05-23T19:01:18.451Z,19.90
2019-05-23T19:03:48.796Z,19.80
2019-05-23T19:06:21.767Z,19.80
2019-05-23T19:08:52.714Z,19.70
2019-05-23T19:11:23.540Z,19.70
2019-05-23T19:13:53.944Z,19.50
2019-05-23T19:16:24.572Z,19.20
2019-05-23T19:18:55.161Z,19.00
2019-05-23T19:21:28.402Z,19.10
2019-05-23T19:24:01.692Z,19.10
2019-05-23T19:26:32.306Z,19.00
2019-05-23T19:29:02.661Z,18.90
2019-05-23T19:31:32.948Z,18.80
2019-05-23T19:34:03.411Z,18.80
2019-05-23T19:36:34.212Z,18.90
2019-05-23T19:39:06.361Z,18.90
2019-05-23T19:41:38.396Z,18.70
2019-05-23T19:44:08.842Z,18.40
2019-05-23T19:46:40.043Z,18.40
2019-05-23T19:49:10.777Z,18.50
2019-05-23T19:51:41.195Z,18.30
2019-05-23T19:54:11.578Z,18.30
2019-05-23T19:56:41.957Z,18.30
2019-05-23T19:59:12.358Z,18.20
2019-05-23T20:02:19.616Z,18.20
2019-05-23T20:04:59.220Z,18.10
2019-05-23T20:07:29.674Z,18.10
2019-05-23T20:10:00.191Z,18.20
2019-05-23T20:12:30.528Z,18.10
2019-05-23T20:15:00.798Z,18.00
2019-05-23T20:17:31.507Z,18.00
2019-05-23T20:20:02.050Z,18.00
2019-05-23T20:22:32.393Z,18.00
2019-05-23T20:25:02.821Z,17.80
2019-05-23T20:27:33.185Z,17.70
2019-05-23T20:30:03.466Z,17.60
2019-05-23T20:32:33.750Z,17.50
2019-05-23T20:35:04.176Z,17.40
2019-05-23T20:37:35.590Z,17.40
2019-05-23T20:40:06.420Z,17.40
2019-05-23T20:42:36.755Z,17.30
2019-05-23T20:45:07.104Z,17.30
2019-05-23T20:47:37.512Z,17.30
2019-05-23T20:50:07.863Z,17.40
2019-05-23T20:52:38.107Z,17.30
2019-05-23T20:55:08.491Z,17.30
2019-05-23T20:57:38.844Z,17.30
2019-05-23T21:00:11.377Z,17.10
2019-05-23T21:02:41.673Z,17.10
2019-05-23T21:05:12.031Z,16.90
2019-05-23T21:07:42.278Z,17.10
2019-05-23T21:10:15.563Z,17.10
2019-05-23T21:12:45.789Z,17.00
2019-05-23T21:15:16.212Z,17.00
2019-05-23T21:17:46.498Z,17.00
2019-05-23T21:20:16.862Z,17.00
2019-05-23T21:22:47.266Z,17.00
2019-05-23T21:25:17.630Z,17.10
2019-05-23T21:27:47.926Z,16.80
2019-05-23T21:30:18.238Z,16.80
2019-05-23T21:32:48.472Z,16.60
2019-05-23T21:35:18.799Z,16.50
2019-05-23T21:37:49.128Z,16.40
2019-05-23T21:40:43.903Z,16.40
2019-05-23T21:43:14.261Z,16.30
2019-05-23T21:45:44.565Z,16.30
2019-05-23T21:48:14.797Z,16.30
2019-05-23T21:50:45.172Z,16.20
2019-05-23T21:53:15.593Z,16.30
2019-05-23T21:55:45.822Z,16.30
2019-05-23T21:58:16.285Z,16.40
2019-05-23T22:01:21.832Z,16.40
2019-05-23T22:03:59.325Z,16.40
2019-05-23T22:06:30.170Z,16.40
2019-05-23T22:09:01.303Z,16.40
2019-05-23T22:11:31.624Z,16.40
2019-05-23T22:14:01.946Z,16.50
2019-05-23T22:16:32.506Z,16.50
2019-05-23T22:19:02.784Z,16.50
2019-05-23T22:21:33.108Z,16.50
2019-05-23T22:24:03.599Z,16.40
2019-05-23T22:26:33.886Z,16.40
2019-05-23T22:29:06.085Z,16.40
2019-05-23T22:31:36.488Z,16.40
2019-05-23T22:34:12.443Z,16.40
2019-05-23T22:36:42.754Z,16.30
2019-05-23T22:39:13.063Z,16.30
2019-05-23T22:41:43.475Z,16.30
2019-05-23T22:44:14.058Z,16.20
2019-05-23T22:46:44.448Z,16.00
2019-05-23T22:49:14.702Z,16.10
2019-05-23T22:51:44.920Z,16.10
2019-05-23T22:54:15.291Z,16.20
2019-05-23T22:56:45.636Z,16.10
2019-05-23T22:59:15.845Z,16.00
2019-05-23T23:01:46.289Z,15.90
2019-05-23T23:04:16.689Z,15.90
2019-05-23T23:06:46.993Z,15.70
2019-05-23T23:09:17.273Z,15.90
2019-05-23T23:11:47.555Z,16.00
2019-05-23T23:14:17.905Z,16.10
2019-05-23T23:16:48.489Z,15.90
2019-05-23T23:19:18.762Z,16.00
2019-05-23T23:21:49.089Z,15.90
2019-05-23T23:24:19.259Z,15.70
2019-05-23T23:26:49.475Z,15.40
2019-05-23T23:29:19.732Z,15.40
2019-05-23T23:31:50.043Z,15.30
2019-05-23T23:34:20.378Z,15.30
2019-05-23T23:36:50.597Z,15.30
2019-05-23T23:39:21.557Z,15.10
2019-05-23T23:41:51.855Z,15.10
2019-05-23T23:44:22.794Z,15.20
2019-05-23T23:47:10.452Z,15.40
2019-05-23T23:49:58.104Z,15.40
2019-05-23T23:52:46.069Z,15.30
2019-05-23T23:55:34.128Z,15.30
2019-05-23T23:58:03.472Z,15.30
